createdAt,value
2019-05-13T00:00:51.010Z,2.40
2019-05-13T00:03:18.520Z,2.00
2019-05-13T00:05:45.744Z,2.13
2019-05-13T00:08:14.010Z,2.63
2019-05-13T00:10:43.504Z,2.07
2019-05-13T00:13:10.402Z,1.90
2019-05-13T00:15:37.634Z,2.20
2019-05-13T00:18:05.206Z,2.57
2019-05-13T00:20:33.828Z,2.37
2019-05-13T00:23:04.031Z,1.93
2019-05-13T00:25:30.687Z,2.27
2019-05-13T00:27:57.893Z,2.23
2019-05-13T00:30:25.119Z,2.27
2019-05-13T00:32:54.425Z,2.93
2019-05-13T00:35:23.175Z,2.40
2019-05-13T00:37:50.219Z,2.60
2019-05-13T00:40:17.734Z,3.20
2019-05-13T00:42:44.974Z,2.97
2019-05-13T00:45:14.590Z,2.83
2019-05-13T00:47:43.631Z,2.43
2019-05-13T00:50:54.571Z,2.70
2019-05-13T00:53:48.988Z,3.43
2019-05-13T00:56:30.467Z,2.87
2019-05-13T00:59:24.420Z,2.80
2019-05-13T01:02:05.407Z,2.57
2019-05-13T01:04:46.359Z,2.57
2019-05-13T01:07:39.884Z,2.43
2019-05-13T01:10:20.833Z,2.47
2019-05-13T01:13:15.222Z,2.90
2019-05-13T01:16:23.464Z,2.40
2019-05-13T01:19:29.157Z,2.80
2019-05-13T01:22:23.895Z,2.50
2019-05-13T01:25:29.867Z,2.40
2019-05-13T01:28:24.114Z,2.30
2019-05-13T01:31:06.283Z,2.27
2019-05-13T01:34:07.546Z,2.60
2019-05-13T01:37:08.316Z,2.67
2019-05-13T01:40:15.234Z,2.50
2019-05-13T01:43:09.399Z,2.40
2019-05-13T01:46:16.634Z,2.60
2019-05-13T01:49:10.878Z,2.47
2019-05-13T01:52:05.278Z,2.67
2019-05-13T01:55:14.292Z,2.70
2019-05-13T01:58:18.964Z,2.80
2019-05-13T02:00:35.649Z,3.30
2019-05-13T02:03:03.950Z,3.13
2019-05-13T02:05:33.662Z,3.00
2019-05-13T02:08:00.876Z,3.23
2019-05-13T02:11:15.246Z,2.80
2019-05-13T02:14:13.266Z,2.70
2019-05-13T02:17:04.560Z,3.10
2019-05-13T02:19:58.470Z,3.43
2019-05-13T02:22:53.640Z,3.13
2019-05-13T02:25:34.250Z,3.17
2019-05-13T02:28:14.690Z,4.03
2019-05-13T02:31:32.010Z,4.00
2019-05-13T02:34:03.887Z,3.43
2019-05-13T02:37:02.850Z,4.07
2019-05-13T02:40:07.278Z,4.07
2019-05-13T02:43:14.646Z,4.47
2019-05-13T02:45:56.325Z,4.57
2019-05-13T02:48:52.535Z,5.03
2019-05-13T02:51:43.580Z,4.73
2019-05-13T02:54:52.787Z,5.20
2019-05-13T02:57:33.036Z,4.80
2019-05-13T03:00:26.554Z,4.50
2019-05-13T03:03:34.397Z,4.43
2019-05-13T03:06:28.419Z,4.37
2019-05-13T03:09:12.418Z,4.67
2019-05-13T03:12:04.311Z,4.00
2019-05-13T03:14:57.299Z,5.03
2019-05-13T03:17:52.523Z,5.30
2019-05-13T03:20:53.997Z,4.97
2019-05-13T03:23:43.635Z,4.50
2019-05-13T03:26:46.941Z,4.60
2019-05-13T03:29:28.977Z,5.10
2019-05-13T03:32:27.142Z,5.33
2019-05-13T03:35:25.576Z,5.57
2019-05-13T03:38:58.762Z,5.00
2019-05-13T03:41:33.339Z,5.43
2019-05-13T03:44:32.221Z,5.90
2019-05-13T03:47:23.899Z,5.43
2019-05-13T03:50:34.420Z,5.63
2019-05-13T03:53:25.756Z,4.67
2019-05-13T03:56:32.928Z,5.63
2019-05-13T03:59:13.749Z,5.33
2019-05-13T04:02:22.506Z,5.23
2019-05-13T04:05:14.630Z,5.50
2019-05-13T04:08:23.169Z,5.13
2019-05-13T04:11:16.304Z,5.37
2019-05-13T04:13:57.764Z,5.90
2019-05-13T04:17:04.609Z,5.03
2019-05-13T04:20:12.631Z,5.73
2019-05-13T04:23:18.721Z,5.70
2019-05-13T04:26:03.077Z,5.97
2019-05-13T04:28:55.125Z,6.00
2019-05-13T04:31:52.950Z,6.00
2019-05-13T04:34:57.962Z,5.60
2019-05-13T04:37:38.981Z,5.53
2019-05-13T04:40:22.633Z,5.77
2019-05-13T04:43:42.917Z,5.77
2019-05-13T04:46:22.784Z,5.40
2019-05-13T04:49:27.246Z,5.90
2019-05-13T04:52:22.452Z,5.43
2019-05-13T04:55:16.294Z,5.00
2019-05-13T04:58:12.943Z,5.10
2019-05-13T05:01:08.935Z,4.50
2019-05-13T05:04:21.414Z,4.23
2019-05-13T05:06:52.757Z,3.93
2019-05-13T05:10:26.285Z,4.27
2019-05-13T05:13:06.953Z,4.00
2019-05-13T05:16:27.671Z,4.03
2019-05-13T05:20:03.698Z,3.67
2019-05-13T05:22:56.913Z,3.53
2019-05-13T05:26:15.174Z,3.10
2019-05-13T05:28:58.251Z,3.40
2019-05-13T05:32:21.489Z,3.10
2019-05-13T05:35:32.203Z,3.30
2019-05-13T05:38:12.091Z,3.17
2019-05-13T05:40:53.525Z,3.00
2019-05-13T05:44:02.323Z,2.80
2019-05-13T05:46:42.773Z,3.13
2019-05-13T05:49:51.492Z,3.30
2019-05-13T05:52:43.412Z,3.30
2019-05-13T05:55:06.383Z,3.03
2019-05-13T05:57:44.789Z,2.80
2019-05-13T06:00:52.045Z,3.50
2019-05-13T06:03:58.741Z,3.20
2019-05-13T06:06:28.410Z,3.30
2019-05-13T06:09:23.320Z,3.33
2019-05-13T06:12:18.287Z,2.70
2019-05-13T06:15:25.839Z,2.67
2019-05-13T06:18:22.262Z,2.80
2019-05-13T06:21:15.808Z,3.03
2019-05-13T06:24:26.660Z,2.83
2019-05-13T06:27:05.266Z,3.40
2019-05-13T06:29:49.120Z,7.57
2019-05-13T06:32:54.424Z,12.23
2019-05-13T06:35:36.974Z,3.83
2019-05-13T06:38:31.714Z,2.90
2019-05-13T06:47:54.896Z,2.70
2019-05-13T06:50:51.920Z,2.50
2019-05-13T06:53:32.176Z,2.20
2019-05-13T06:56:25.419Z,2.47
2019-05-13T06:59:31.971Z,2.20
2019-05-13T07:02:27.278Z,2.10
2019-05-13T07:05:34.421Z,2.53
2019-05-13T07:08:15.708Z,2.50
2019-05-13T07:10:57.367Z,2.40
2019-05-13T07:14:04.251Z,2.50
2019-05-13T07:16:47.343Z,2.93
2019-05-13T07:19:41.957Z,2.53
2019-05-13T07:22:23.138Z,2.03
2019-05-13T07:25:15.825Z,2.77
2019-05-13T07:28:09.218Z,2.10
2019-05-13T07:31:04.426Z,1.93
2019-05-13T07:34:02.310Z,1.90
2019-05-13T07:36:44.018Z,2.20
2019-05-13T07:39:37.482Z,2.33
2019-05-13T07:42:31.932Z,3.40
2019-05-13T07:45:25.891Z,2.30
2019-05-13T07:48:24.491Z,2.20
2019-05-13T07:51:04.264Z,2.30
2019-05-13T07:54:07.964Z,2.70
2019-05-13T07:56:48.868Z,2.33
2019-05-13T07:59:44.583Z,2.40
2019-05-13T08:02:52.356Z,2.90
2019-05-13T08:05:32.593Z,3.00
2019-05-13T08:08:14.770Z,2.67
2019-05-13T08:10:56.090Z,2.00
2019-05-13T08:13:51.722Z,2.27
2019-05-13T08:16:57.462Z,2.43
2019-05-13T08:19:52.084Z,2.10
2019-05-13T08:22:44.931Z,2.10
2019-05-13T08:25:52.729Z,2.33
2019-05-13T08:28:56.930Z,2.07
2019-05-13T08:31:41.350Z,2.00
2019-05-13T08:34:11.827Z,2.00
2019-05-13T08:37:17.447Z,1.90
2019-05-13T08:40:01.606Z,1.77
2019-05-13T08:42:41.573Z,2.72
2019-05-13T08:45:34.431Z,2.33
2019-05-13T08:48:42.864Z,2.10
2019-05-13T08:51:23.190Z,2.30
2019-05-13T08:54:17.941Z,2.00
2019-05-13T08:57:13.552Z,2.25
2019-05-13T09:00:06.033Z,2.52
2019-05-13T09:03:06.178Z,2.22
2019-05-13T09:06:06.855Z,1.87
2019-05-13T09:09:02.618Z,2.20
2019-05-13T09:11:53.686Z,2.27
2019-05-13T09:15:03.777Z,2.52
2019-05-13T09:17:45.882Z,2.40
2019-05-13T09:20:54.698Z,2.65
2019-05-13T09:23:51.406Z,2.08
2019-05-13T09:26:45.502Z,1.98
2019-05-13T09:29:47.712Z,1.80
2019-05-13T09:32:21.776Z,2.20
2019-05-13T09:35:15.774Z,2.22
2019-05-13T09:38:03.229Z,1.67
2019-05-13T09:40:55.478Z,1.90
2019-05-13T09:43:51.344Z,1.83
2019-05-13T09:46:44.439Z,1.67
2019-05-13T09:49:50.880Z,1.80
2019-05-13T09:52:32.549Z,1.80
2019-05-13T09:55:25.482Z,1.63
2019-05-13T09:58:22.284Z,1.70
2019-05-13T10:01:27.308Z,1.40
2019-05-13T10:04:22.328Z,1.40
2019-05-13T10:07:03.252Z,1.90
2019-05-13T10:09:48.248Z,1.50
2019-05-13T10:13:07.871Z,1.30
2019-05-13T10:15:33.053Z,1.20
2019-05-13T10:18:41.718Z,1.30
2019-05-13T10:21:34.833Z,1.27
2019-05-13T10:24:28.405Z,1.00
2019-05-13T10:27:12.124Z,1.13
2019-05-13T10:30:03.290Z,1.20
2019-05-13T10:32:59.525Z,1.37
2019-05-13T10:36:04.554Z,1.23
2019-05-13T10:39:01.426Z,1.40
2019-05-13T10:41:42.468Z,1.30
2019-05-13T10:44:36.335Z,1.50
2019-05-13T10:47:31.429Z,1.20
2019-05-13T10:50:12.117Z,1.40
2019-05-13T10:53:21.776Z,1.23
2019-05-13T10:56:03.231Z,1.20
2019-05-13T10:58:55.483Z,1.20
2019-05-13T11:01:49.842Z,1.10
2019-05-13T11:04:44.328Z,1.30
2019-05-13T11:07:37.889Z,1.20
2019-05-13T11:10:32.722Z,1.27
2019-05-13T11:13:50.432Z,1.43
2019-05-13T11:16:34.260Z,1.20
2019-05-13T11:19:33.283Z,1.13
2019-05-13T11:22:22.861Z,1.37
2019-05-13T11:25:21.860Z,1.20
2019-05-13T11:28:12.275Z,1.10
2019-05-13T11:30:52.944Z,1.40
2019-05-13T11:33:34.399Z,1.27
2019-05-13T11:36:43.749Z,1.43
2019-05-13T11:39:24.583Z,1.17
2019-05-13T11:42:22.713Z,1.00
2019-05-13T11:45:14.694Z,1.07
2019-05-13T11:48:08.980Z,1.37
2019-05-13T11:51:04.138Z,1.10
2019-05-13T11:53:58.422Z,1.20
2019-05-13T11:57:01.468Z,1.27
2019-05-13T11:59:46.739Z,1.53
2019-05-13T12:02:43.258Z,1.00
2019-05-13T12:05:48.952Z,1.20
2019-05-13T12:08:50.595Z,1.30
2019-05-13T12:11:39.540Z,1.50
2019-05-13T12:14:06.862Z,1.13
2019-05-13T12:16:34.939Z,1.50
2019-05-13T12:19:03.636Z,1.50
2019-05-13T12:21:31.106Z,1.33
2019-05-13T12:24:07.087Z,1.60
2019-05-13T12:26:27.993Z,1.47
2019-05-13T12:29:20.440Z,1.33
2019-05-13T12:32:03.236Z,1.43
2019-05-13T12:35:13.221Z,1.50
2019-05-13T12:37:53.310Z,1.13
2019-05-13T12:40:45.300Z,1.43
2019-05-13T12:43:26.858Z,1.47
2019-05-13T12:46:11.778Z,1.40
2019-05-13T12:49:15.799Z,1.60
2019-05-13T12:52:00.601Z,1.37
2019-05-13T12:54:52.862Z,1.40
2019-05-13T12:57:32.598Z,1.20
2019-05-13T13:00:15.187Z,2.03
2019-05-13T13:03:02.177Z,1.50
2019-05-13T13:05:47.192Z,1.70
2019-05-13T13:08:28.985Z,1.50
2019-05-13T13:10:55.462Z,1.37
2019-05-13T13:16:44.029Z,1.10
2019-05-13T13:19:25.729Z,1.40
2019-05-13T13:22:08.052Z,1.43
2019-05-13T13:25:04.764Z,1.73
2019-05-13T13:28:03.845Z,1.37
2019-05-13T13:30:52.536Z,1.40
2019-05-13T13:33:44.496Z,1.80
2019-05-13T13:36:38.465Z,1.40
2019-05-13T13:39:45.758Z,1.50
2019-05-13T13:42:35.094Z,1.40
2019-05-13T13:46:03.671Z,1.70
2019-05-13T13:48:24.951Z,1.60
2019-05-13T13:51:25.915Z,1.50
2019-05-13T13:54:26.430Z,1.70
2019-05-13T13:56:56.333Z,1.80
2019-05-13T14:00:26.604Z,1.60
2019-05-13T14:03:15.459Z,1.73
2019-05-13T14:05:43.468Z,1.80
2019-05-13T14:08:37.734Z,1.97
2019-05-13T14:11:42.064Z,2.07
2019-05-13T14:14:52.495Z,1.60
2019-05-13T14:17:33.896Z,1.90
2019-05-13T14:20:42.889Z,1.67
2019-05-13T14:23:47.946Z,1.97
2019-05-13T14:26:43.443Z,1.63
2019-05-13T14:29:50.217Z,1.77
2019-05-13T14:32:32.102Z,1.90
2019-05-13T14:35:25.512Z,1.50
2019-05-13T14:38:33.005Z,1.73
2019-05-13T14:41:14.476Z,1.57
2019-05-13T14:43:55.415Z,1.80
2019-05-13T14:46:52.030Z,2.23
2019-05-13T14:49:44.156Z,1.77
2019-05-13T14:52:38.357Z,1.60
2019-05-13T14:55:32.420Z,1.97
2019-05-13T14:58:26.419Z,1.83
2019-05-13T15:01:17.615Z,3.60
2019-05-13T15:04:15.341Z,2.63
2019-05-13T15:07:12.119Z,1.77
2019-05-13T15:09:53.439Z,1.77
2019-05-13T15:13:02.829Z,2.00
2019-05-13T15:15:54.338Z,1.50
2019-05-13T15:18:48.957Z,1.60
2019-05-13T15:21:43.276Z,1.63
2019-05-13T15:24:37.703Z,1.90
2019-05-13T15:27:31.793Z,1.53
2019-05-13T15:30:14.532Z,1.70
2019-05-13T15:33:07.197Z,1.63
2019-05-13T15:35:51.949Z,1.73
2019-05-13T15:38:46.154Z,1.43
2019-05-13T15:41:41.804Z,1.63
2019-05-13T15:44:22.095Z,1.70
2019-05-13T15:47:28.839Z,1.33
2019-05-13T15:50:12.390Z,1.63
2019-05-13T15:53:21.498Z,1.63
2019-05-13T15:56:02.522Z,1.73
2019-05-13T15:58:57.479Z,1.77
2019-05-13T16:01:38.674Z,1.53
2019-05-13T16:04:32.471Z,1.90
2019-05-13T16:07:13.856Z,1.60
2019-05-13T16:10:08.381Z,1.67
2019-05-13T16:12:51.812Z,2.00
2019-05-13T16:15:32.233Z,2.87
2019-05-13T16:18:26.311Z,1.80
2019-05-13T16:21:09.285Z,1.47
2019-05-13T16:24:05.335Z,1.93
2019-05-13T16:26:52.272Z,1.80
2019-05-13T16:29:46.347Z,1.70
2019-05-13T16:32:15.657Z,1.70
2019-05-13T16:35:13.584Z,1.70
2019-05-13T16:38:07.650Z,1.60
2019-05-13T16:41:02.772Z,1.87
2019-05-13T16:43:57.332Z,1.90
2019-05-13T16:46:51.942Z,1.90
2019-05-13T16:49:33.256Z,2.10
2019-05-13T16:52:27.706Z,1.73
2019-05-13T16:55:12.622Z,1.60
2019-05-13T16:57:51.320Z,1.50
2019-05-13T17:00:47.386Z,1.83
2019-05-13T17:03:31.787Z,1.70
2019-05-13T17:06:36.691Z,1.70
2019-05-13T17:09:18.766Z,1.50
2019-05-13T17:12:01.479Z,1.60
2019-05-13T17:14:28.786Z,1.90
2019-05-13T17:17:06.468Z,1.93
2019-05-13T17:20:12.646Z,1.97
2019-05-13T17:22:53.421Z,1.47
2019-05-13T17:25:21.947Z,2.13
2019-05-13T17:28:22.444Z,1.60
2019-05-13T17:31:11.574Z,1.93
2019-05-13T17:33:55.988Z,1.70
2019-05-13T17:36:51.883Z,1.73
2019-05-13T17:39:46.408Z,1.67
2019-05-13T17:42:32.896Z,1.70
2019-05-13T17:45:37.140Z,1.70
2019-05-13T17:48:28.519Z,1.63
2019-05-13T17:51:16.160Z,1.70
2019-05-13T17:53:53.944Z,1.70
2019-05-13T17:56:48.217Z,1.43
2019-05-13T17:59:16.285Z,1.70
2019-05-13T18:01:55.125Z,1.90
2019-05-13T18:04:22.690Z,2.50
2019-05-13T18:07:07.940Z,2.37
2019-05-13T18:09:51.899Z,1.50
2019-05-13T18:12:43.964Z,1.40
2019-05-13T18:15:26.297Z,1.97
2019-05-13T18:18:37.801Z,1.63
2019-05-13T18:21:06.316Z,1.80
2019-05-13T18:24:02.319Z,1.60
2019-05-13T18:26:33.849Z,1.70
2019-05-13T18:29:08.109Z,1.47
2019-05-13T18:31:42.043Z,2.03
2019-05-13T18:34:08.213Z,1.73
2019-05-13T18:36:46.861Z,1.60
2019-05-13T18:39:34.773Z,1.37
2019-05-13T18:42:02.409Z,1.73
2019-05-13T18:44:51.385Z,1.33
2019-05-13T18:47:38.074Z,1.50
2019-05-13T18:50:15.088Z,1.80
2019-05-13T18:52:45.924Z,1.50
2019-05-13T18:55:21.505Z,1.40
2019-05-13T18:57:48.679Z,1.60
2019-05-13T19:00:27.334Z,1.40
2019-05-13T19:03:01.580Z,1.93
2019-05-13T19:05:37.376Z,1.57
2019-05-13T19:08:12.332Z,1.80
2019-05-13T19:10:45.534Z,1.70
2019-05-13T19:13:13.341Z,1.67
2019-05-13T19:15:44.841Z,1.73
2019-05-13T19:18:15.568Z,1.60
2019-05-13T19:20:45.226Z,1.73
2019-05-13T19:23:19.984Z,1.77
2019-05-13T19:25:51.331Z,1.80
2019-05-13T19:28:22.554Z,1.30
2019-05-13T19:30:51.975Z,2.50
2019-05-13T19:33:26.801Z,2.83
2019-05-13T19:36:01.159Z,2.10
2019-05-13T19:38:35.304Z,1.43
2019-05-13T19:41:07.624Z,1.40
2019-05-13T19:43:34.940Z,1.40
2019-05-13T19:46:09.643Z,2.13
2019-05-13T19:48:43.698Z,1.53
2019-05-13T19:51:21.760Z,1.47
2019-05-13T19:53:52.749Z,1.87
2019-05-13T19:56:29.065Z,2.00
2019-05-13T19:59:02.701Z,1.60
2019-05-13T20:01:34.656Z,1.40
2019-05-13T20:04:08.852Z,1.63
2019-05-13T20:06:42.178Z,1.70
2019-05-13T20:09:15.469Z,1.60
2019-05-13T20:11:55.021Z,1.73
2019-05-13T20:14:25.751Z,1.67
2019-05-13T20:16:56.469Z,1.73
2019-05-13T20:19:50.081Z,1.40
2019-05-13T20:22:32.774Z,1.80
2019-05-13T20:25:21.802Z,1.40
2019-05-13T20:28:05.798Z,1.80
2019-05-13T20:30:52.180Z,1.40
2019-05-13T20:33:40.750Z,1.50
2019-05-13T20:36:25.491Z,1.90
2019-05-13T20:39:11.552Z,1.73
2019-05-13T20:41:55.816Z,1.70
2019-05-13T20:44:26.861Z,1.70
2019-05-13T20:47:10.916Z,1.70
2019-05-13T20:50:01.360Z,1.97
2019-05-13T20:52:41.898Z,1.50
2019-05-13T20:55:27.949Z,1.90
2019-05-13T20:58:12.727Z,1.80
2019-05-13T21:00:52.162Z,2.13
2019-05-13T21:04:02.820Z,1.97
2019-05-13T21:06:42.241Z,2.00
2019-05-13T21:09:17.285Z,1.97
2019-05-13T21:11:53.462Z,1.67
2019-05-13T21:14:29.254Z,1.63
2019-05-13T21:17:31.822Z,1.70
2019-05-13T21:20:14.867Z,2.00
2019-05-13T21:22:37.137Z,1.83
2019-05-13T21:25:36.337Z,2.00
2019-05-13T21:28:04.948Z,2.30
2019-05-13T21:30:58.814Z,1.90
2019-05-13T21:34:01.251Z,1.90
2019-05-13T21:36:36.418Z,2.03
2019-05-13T21:39:44.870Z,2.00
2019-05-13T21:42:32.181Z,1.97
2019-05-13T21:45:41.808Z,1.47
2019-05-13T21:48:51.905Z,1.90
2019-05-13T21:51:31.503Z,1.87
2019-05-13T21:54:24.801Z,1.80
2019-05-13T21:57:05.452Z,1.80
2019-05-13T22:00:13.821Z,1.63
2019-05-13T22:03:08.832Z,1.70
2019-05-13T22:05:51.497Z,1.63
2019-05-13T22:08:44.179Z,1.43
2019-05-13T22:11:01.776Z,1.50
2019-05-13T22:14:01.818Z,1.30
2019-05-13T22:16:42.839Z,1.63
2019-05-13T22:19:24.359Z,1.60
2019-05-13T22:22:05.465Z,1.50
2019-05-13T22:25:13.230Z,1.30
2019-05-13T22:28:07.930Z,1.87
2019-05-13T22:31:14.856Z,1.40
2019-05-13T22:33:56.988Z,1.70
2019-05-13T22:37:05.365Z,1.43
2019-05-13T22:40:01.618Z,1.80
2019-05-13T22:42:56.638Z,1.50
2019-05-13T22:45:51.423Z,1.47
2019-05-13T22:48:32.015Z,1.40
2019-05-13T22:51:13.029Z,1.40
2019-05-13T22:54:28.432Z,1.70
2019-05-13T22:57:11.968Z,1.70
2019-05-13T23:00:04.579Z,1.50
2019-05-13T23:03:01.601Z,1.77
2019-05-13T23:05:28.414Z,1.90
2019-05-13T23:08:22.484Z,1.50
2019-05-13T23:11:17.684Z,1.70
2019-05-13T23:14:13.864Z,1.83
2019-05-13T23:17:08.764Z,1.83
2019-05-13T23:20:02.323Z,1.70
2019-05-13T23:22:43.896Z,1.93
2019-05-13T23:25:50.943Z,2.03
2019-05-13T23:28:47.986Z,1.60
2019-05-13T23:31:42.715Z,1.80
2019-05-13T23:34:11.933Z,2.23
2019-05-13T23:37:13.896Z,2.23
2019-05-13T23:40:11.696Z,2.50
2019-05-13T23:43:11.286Z,2.33
2019-05-13T23:46:28.953Z,2.20
2019-05-13T23:49:11.812Z,2.20
2019-05-13T23:52:17.770Z,2.40
2019-05-13T23:55:11.604Z,2.27
2019-05-13T23:57:52.967Z,2.40
